Monday, June 25, 2018, 12:44 AM GMT
Back to Local

CYTR, Trenton, Ont.

Location: , , Canada Lat: 44.117
Local Time: 12:44 AM GMT ( 0:44 GMT) Lon: -77.533
Time Zone: GMT Elev: 278 ft

Show me the last for .
Show Coded

Time T Td Feel RH Dir Speed Gust Alt SLP Vis Weather Sky Remarks
2018-06-25 00:20 66 63 - 88 270° 3 - 29.92 29.92 7 -SHRA SCT007 BKN025 BKN085 None
2018-06-25 00:14 66 64 - 93 280° 5 - 29.91 29.91 4 -SHRA BR BKN007 OVC017 None
2018-06-25 00:10 66 64 - 93 290° 6 - 29.92 29.92 2 SHRA BR BKN010 OVC017 None
2018-06-25 00:05 66 64 - 93 330° 2 - 29.92 29.92 3 -SHRA BR BKN010 OVC019 None
2018-06-25 00:00 66 64 - 93 310° 3 - 29.92 29.92 6 -SHRA BR BKN010 BKN019 OVC085 None
2018-06-24 23:41 66 63 - 88 230° 5 - 29.90 29.90 12 -SHRA SCT033 BKN085 BKN250 None
2018-06-24 23:37 66 64 - 93 230° 3 - 29.90 29.90 12 SCT033 BKN092 BKN250 None
2018-06-24 23:13 68 64 - 88 190° 5 - 29.88 29.88 12 -SHRA SCT033 BKN120 None
2018-06-24 23:00 68 64 - 88 210° 6 - 29.89 29.89 15 SCT043 BKN120 None
2018-06-24 22:00 68 64 - 88 250° 5 - 29.87 29.88 15 SCT045 OVC250 None
2018-06-24 21:52 68 64 - 88 250° 3 - 29.87 29.87 15 SCT045 OVC250 None
2018-06-24 21:00 66 63 - 88 260° 6 - 29.87 29.87 9 -SHRA OVC042 None
2018-06-24 20:28 66 63 - 88 250° 5 - 29.86 29.87 15 -SHRA OVC083 None
2018-06-24 20:00 66 61 - 82 250° 3 - 29.86 29.86 15 OVC083 None
2018-06-24 19:33 66 61 - 82 200° 2 - 29.85 29.85 15 OVC035 None
2018-06-24 19:00 66 61 - 82 170° 3 - 29.85 29.85 8 -SHRA OVC029 None
2018-06-24 18:44 66 61 - 82 160° 3 - 29.84 29.85 6 SHRA BR OVC015 None
2018-06-24 18:00 66 59 - 77 90° 2 - 29.85 29.85 15 -SHRA BKN045 OVC067 None
2018-06-24 17:50 66 59 - 77 80° 2 - 29.85 29.85 15 -SHRA BKN034 OVC064 None
2018-06-24 17:44 66 59 - 77 - Calm - 29.86 29.86 15 BKN045 OVC064 None
2018-06-24 17:13 68 59 - 72 110° 3 - 29.85 29.85 15 -SHRA BKN045 BKN064 OVC075 None
2018-06-24 17:00 68 59 - 72 140° 3 - 29.86 29.86 15 BKN045 BKN064 OVC075 None
2018-06-24 16:00 68 59 - 72 120° 5 - 29.84 29.84 15 BKN019 OVC043 None
2018-06-24 15:00 66 57 - 72 70° 6 - 29.84 29.84 15 BKN038 OVC075 None
2018-06-24 14:00 64 59 - 82 40° 9 - 29.82 29.82 15 SCT013 OVC029 None
2018-06-24 13:00 63 59 - 88 60° 3 - 29.83 29.83 15 BKN008 OVC027 None
2018-06-24 12:00 63 59 - 88 40° 10 - 29.81 29.82 15 BKN008 OVC032 None
2018-06-24 11:00 63 59 - 88 30° 6 - 29.80 29.80 15 FEW014 OVC026 None
2018-06-24 10:00 63 59 - 88 20° 3 - 29.79 29.80 7 OVC014 None
2018-06-24 09:00 63 59 - 88 360° 3 - 29.77 29.77 7 OVC012 None
2018-06-24 08:00 63 59 - 88 30° 2 - 29.77 29.77 10 OVC014 None
2018-06-24 07:00 63 59 - 88 320° 2 - 29.76 29.77 7 FEW006 OVC016 None
2018-06-24 06:00 63 59 - 88 30° 3 - 29.76 29.77 7 FEW006 OVC018 None
2018-06-24 05:00 63 59 - 88 40° 3 - 29.76 29.76 12 FEW006 OVC020 None
2018-06-24 04:32 63 59 - 88 20° 5 - 29.76 29.76 12 SCT020 OVC087 None
2018-06-24 04:00 63 59 - 88 40° 6 - 29.75 29.76 15 BKN018 OVC087 None
2018-06-24 03:00 63 59 - 88 10° 5 - 29.77 29.77 10 BKN013 OVC019 None
2018-06-24 02:00 63 59 - 88 30° 5 - 29.76 29.76 15 BKN012 OVC019 None
2018-06-24 01:21 63 59 - 88 10° 3 - 29.75 29.75 15 BKN011 OVC019 None
2018-06-24 01:00 64 59 - 82 40° 5 - 29.74 29.74 15 OVC019 None

Support USWX by starting your Amazon purchase here.